createdAt,value
2018-04-17T00:01:05.960Z,0
2018-04-17T00:02:15.516Z,0
2018-04-17T00:03:25.328Z,0
2018-04-17T00:04:35.417Z,0
2018-04-17T00:05:45.241Z,0
2018-04-17T00:06:55.319Z,0
2018-04-17T00:08:05.385Z,0
2018-04-17T00:09:15.200Z,0
2018-04-17T00:10:25.258Z,0
2018-04-17T00:11:35.284Z,0
2018-04-17T00:12:45.310Z,0
2018-04-17T00:13:55.325Z,0
2018-04-17T00:15:05.074Z,0
2018-04-17T00:16:15.109Z,0
2018-04-17T00:17:25.121Z,0
2018-04-17T00:18:35.200Z,0
2018-04-17T00:19:45.216Z,0
2018-04-17T00:20:55.217Z,0
2018-04-17T00:22:05.214Z,0
2018-04-17T00:23:14.970Z,0
2018-04-17T00:24:25.008Z,0
2018-04-17T00:25:35.025Z,0
2018-04-17T00:26:45.048Z,0
2018-04-17T00:27:55.102Z,0
2018-04-17T00:29:05.116Z,0
2018-04-17T00:30:15.118Z,0
2018-04-17T00:31:25.126Z,0
2018-04-17T00:32:35.164Z,0
2018-04-17T00:33:44.924Z,0
2018-04-17T00:34:54.949Z,0
2018-04-17T00:36:05.024Z,0
2018-04-17T00:37:14.815Z,0
2018-04-17T00:38:24.584Z,0
2018-04-17T00:39:34.583Z,0
2018-04-17T00:40:44.613Z,0
2018-04-17T00:41:54.375Z,0
2018-04-17T00:43:04.426Z,0
2018-04-17T00:44:14.441Z,0
2018-04-17T00:45:24.209Z,0
2018-04-17T00:46:34.213Z,0
2018-04-17T00:47:44.259Z,0
2018-04-17T00:48:54.269Z,0
2018-04-17T00:50:04.024Z,0
2018-04-17T00:51:14.043Z,0
2018-04-17T00:52:24.063Z,0
2018-04-17T00:53:34.068Z,0
2018-04-17T00:54:43.837Z,0
2018-04-17T00:55:53.852Z,0
2018-04-17T00:57:03.919Z,0
2018-04-17T00:58:13.915Z,0
2018-04-17T00:59:23.722Z,0
2018-04-17T01:00:33.724Z,0
2018-04-17T01:01:43.505Z,0
2018-04-17T01:02:53.524Z,0
2018-04-17T01:04:03.011Z,0
2018-04-17T01:05:13.022Z,0
2018-04-17T01:06:23.042Z,0
2018-04-17T01:07:32.781Z,0
2018-04-17T01:08:42.807Z,0
2018-04-17T01:09:52.828Z,0
2018-04-17T01:11:02.929Z,0
2018-04-17T01:12:12.935Z,0
2018-04-17T01:13:22.970Z,0
2018-04-17T01:14:32.765Z,0
2018-04-17T01:15:42.783Z,0
2018-04-17T01:16:52.941Z,0
2018-04-17T01:18:02.694Z,0
2018-04-17T01:19:12.436Z,0
2018-04-17T01:20:22.203Z,0
2018-04-17T01:21:32.216Z,0
2018-04-17T01:22:41.983Z,0
2018-04-17T01:23:51.995Z,0
2018-04-17T01:25:01.741Z,0
2018-04-17T01:26:11.508Z,0
2018-04-17T01:27:21.529Z,0
2018-04-17T01:28:31.292Z,0
2018-04-17T01:29:41.299Z,0
2018-04-17T01:30:51.319Z,0
2018-04-17T01:32:01.327Z,0
2018-04-17T01:33:11.103Z,0
2018-04-17T01:34:21.123Z,0
2018-04-17T01:35:31.133Z,0
2018-04-17T01:36:41.202Z,0
2018-04-17T01:37:51.266Z,0
2018-04-17T01:39:01.328Z,0
2018-04-17T01:40:11.140Z,0
2018-04-17T01:41:20.671Z,0
2018-04-17T01:42:30.499Z,0
2018-04-17T01:43:40.300Z,0
2018-04-17T01:44:50.376Z,0
2018-04-17T01:46:00.504Z,0
2018-04-17T01:47:10.571Z,0
2018-04-17T01:48:20.660Z,0
2018-04-17T01:49:29.942Z,0
2018-04-17T01:50:40.015Z,0
2018-04-17T01:51:50.093Z,0
2018-04-17T01:53:00.182Z,0
2018-04-17T01:54:10.256Z,0
2018-04-17T01:55:20.310Z,0
2018-04-17T01:56:30.118Z,0
2018-04-17T01:57:40.233Z,0
2018-04-17T01:58:50.299Z,0
2018-04-17T02:00:00.364Z,0
2018-04-17T02:01:10.432Z,0
2018-04-17T02:02:20.246Z,0
2018-04-17T02:03:30.328Z,0
2018-04-17T02:04:40.384Z,0
2018-04-17T02:05:50.447Z,0
2018-04-17T02:06:59.735Z,0
2018-04-17T02:08:09.809Z,0
2018-04-17T02:09:19.941Z,0
2018-04-17T02:10:30.032Z,0
2018-04-17T02:11:40.113Z,0
2018-04-17T02:12:49.930Z,0
2018-04-17T02:13:59.482Z,0
2018-04-17T02:15:09.585Z,0
2018-04-17T02:16:19.693Z,0
2018-04-17T02:17:29.773Z,0
2018-04-17T02:18:39.567Z,0
2018-04-17T02:19:49.637Z,0
2018-04-17T02:20:59.703Z,0
2018-04-17T02:22:09.522Z,0
2018-04-17T02:23:19.333Z,0
2018-04-17T02:24:29.420Z,0
2018-04-17T02:25:39.486Z,0
2018-04-17T02:26:49.301Z,0
2018-04-17T02:27:59.411Z,0
2018-04-17T02:29:09.482Z,0
2018-04-17T02:30:19.556Z,0
2018-04-17T02:31:29.381Z,0
2018-04-17T02:32:39.471Z,0
2018-04-17T02:33:49.534Z,0
2018-04-17T02:34:59.614Z,0
2018-04-17T02:36:09.697Z,0
2018-04-17T02:37:19.776Z,0
2018-04-17T02:38:29.844Z,0
2018-04-17T02:39:39.653Z,0
2018-04-17T02:40:49.733Z,0
2018-04-17T02:41:59.817Z,0
2018-04-17T02:43:09.904Z,0
2018-04-17T02:44:19.979Z,0
2018-04-17T02:45:30.060Z,0
2018-04-17T02:46:40.124Z,0
2018-04-17T02:47:50.228Z,0
2018-04-17T02:49:00.314Z,0
2018-04-17T02:50:10.473Z,0
2018-04-17T02:51:20.281Z,0
2018-04-17T02:52:30.345Z,0
2018-04-17T02:53:40.441Z,0
2018-04-17T02:54:50.533Z,0
2018-04-17T02:56:00.400Z,0
2018-04-17T02:57:10.475Z,0
2018-04-17T02:58:20.605Z,0
2018-04-17T02:59:30.697Z,0
2018-04-17T03:00:40.784Z,0
2018-04-17T03:01:50.909Z,0
2018-04-17T03:34:15.066Z,0
2018-04-17T03:35:25.138Z,0
2018-04-17T03:36:35.199Z,0
2018-04-17T03:37:45.012Z,0
2018-04-17T03:38:55.100Z,0
2018-04-17T03:40:05.159Z,0
2018-04-17T03:41:15.254Z,0
2018-04-17T03:42:25.346Z,0
2018-04-17T03:43:35.155Z,0
2018-04-17T03:44:45.224Z,0
2018-04-17T03:45:55.048Z,0
2018-04-17T03:47:04.862Z,0
2018-04-17T03:48:14.949Z,0
2018-04-17T03:49:25.048Z,0
2018-04-17T03:50:34.861Z,0
2018-04-17T03:51:44.996Z,0
2018-04-17T03:52:54.798Z,0
2018-04-17T03:54:04.869Z,0
2018-04-17T03:55:14.705Z,0
2018-04-17T03:56:24.769Z,0
2018-04-17T03:57:34.052Z,0
2018-04-17T03:58:43.869Z,0
2018-04-17T03:59:53.936Z,0
2018-04-17T04:01:04.016Z,0
2018-04-17T04:02:14.089Z,0
2018-04-17T04:03:24.143Z,0
2018-04-17T04:04:34.197Z,0
2018-04-17T04:05:44.268Z,5
2018-04-17T04:06:54.357Z,5
2018-04-17T04:08:04.439Z,5
2018-04-17T04:09:14.269Z,5
2018-04-17T04:10:24.353Z,5
2018-04-17T04:11:34.427Z,5
2018-04-17T04:12:44.233Z,10
2018-04-17T04:13:54.049Z,10
2018-04-17T04:15:03.687Z,10
2018-04-17T04:16:13.573Z,10
2018-04-17T04:17:23.651Z,10
2018-04-17T04:18:33.757Z,15
2018-04-17T04:19:43.835Z,15
2018-04-17T04:20:53.436Z,15
2018-04-17T04:22:03.508Z,15
2018-04-17T04:23:13.339Z,15
2018-04-17T04:24:23.439Z,20
2018-04-17T04:25:33.526Z,20
2018-04-17T04:26:43.398Z,20
2018-04-17T04:27:53.475Z,20
2018-04-17T04:29:03.290Z,20
2018-04-17T04:30:13.094Z,20
2018-04-17T04:31:22.921Z,25
2018-04-17T04:32:32.728Z,25
2018-04-17T04:33:42.799Z,25
2018-04-17T04:34:52.784Z,25
2018-04-17T04:36:02.854Z,25
2018-04-17T04:37:12.953Z,30
2018-04-17T04:38:22.767Z,30
2018-04-17T04:39:32.583Z,30
2018-04-17T04:40:42.678Z,30
2018-04-17T04:41:52.742Z,30
2018-04-17T04:43:02.823Z,30
2018-04-17T04:44:12.642Z,30
2018-04-17T04:45:22.722Z,35
2018-04-17T04:46:32.824Z,35
2018-04-17T04:47:42.918Z,35
2018-04-17T04:48:52.989Z,35
2018-04-17T04:50:03.112Z,40
2018-04-17T04:51:13.193Z,40
2018-04-17T04:52:23.005Z,40
2018-04-17T04:53:33.084Z,40
2018-04-17T04:54:43.189Z,45
2018-04-17T04:55:53.309Z,45
2018-04-17T04:57:03.127Z,45
2018-04-17T04:58:13.212Z,45
2018-04-17T04:59:23.291Z,50
2018-04-17T05:00:33.342Z,50
2018-04-17T05:01:43.482Z,50
2018-04-17T05:02:53.342Z,55
2018-04-17T05:04:03.160Z,55
2018-04-17T05:05:13.242Z,55
2018-04-17T05:06:23.059Z,60
2018-04-17T05:07:33.127Z,65
2018-04-17T05:08:43.213Z,65
2018-04-17T05:09:52.986Z,70
2018-04-17T05:11:03.072Z,70
2018-04-17T05:12:12.885Z,70
2018-04-17T05:13:22.980Z,70
2018-04-17T05:14:33.056Z,75
2018-04-17T05:15:43.138Z,80
2018-04-17T05:16:52.964Z,85
2018-04-17T05:18:02.523Z,90
2018-04-17T05:19:12.585Z,90
2018-04-17T05:20:22.647Z,90
2018-04-17T05:21:32.463Z,90
2018-04-17T05:22:42.509Z,100
2018-04-17T05:23:52.487Z,100
2018-04-17T05:25:02.620Z,100
2018-04-17T05:26:12.701Z,105
2018-04-17T05:27:22.793Z,110
2018-04-17T05:28:32.897Z,115
2018-04-17T05:29:42.972Z,125
2018-04-17T05:30:53.049Z,135
2018-04-17T05:32:02.613Z,140
2018-04-17T05:33:12.443Z,150
2018-04-17T05:34:22.393Z,150
2018-04-17T05:35:32.232Z,155
2018-04-17T05:36:42.334Z,155
2018-04-17T05:37:52.437Z,140
2018-04-17T05:39:02.510Z,130
2018-04-17T05:40:12.520Z,135
2018-04-17T05:41:22.596Z,135
2018-04-17T05:42:32.425Z,150
2018-04-17T05:43:42.534Z,170
2018-04-17T05:44:52.615Z,175
2018-04-17T05:46:02.185Z,165
2018-04-17T05:47:12.249Z,145
2018-04-17T05:48:22.368Z,145
2018-04-17T05:49:32.523Z,140
2018-04-17T05:50:42.342Z,140
2018-04-17T05:51:51.898Z,140
2018-04-17T05:53:02.002Z,155
2018-04-17T05:54:12.070Z,155
2018-04-17T05:55:22.150Z,155
2018-04-17T05:56:31.991Z,150
2018-04-17T05:57:41.560Z,140
2018-04-17T05:58:51.451Z,140
2018-04-17T06:00:01.538Z,140
2018-04-17T06:01:11.608Z,150
2018-04-17T06:02:21.408Z,155
2018-04-17T06:03:30.959Z,155
2018-04-17T06:04:40.770Z,155
2018-04-17T06:05:50.903Z,145
2018-04-17T06:07:00.980Z,140
2018-04-17T06:08:11.081Z,145
2018-04-17T06:09:21.180Z,140
2018-04-17T06:10:31.004Z,150
2018-04-17T06:11:41.106Z,150
2018-04-17T06:12:51.194Z,155
2018-04-17T06:14:01.264Z,150
2018-04-17T06:15:11.360Z,145
2018-04-17T06:16:21.466Z,145
2018-04-17T06:17:31.529Z,145
2018-04-17T06:18:41.663Z,145
2018-04-17T06:19:51.746Z,145
2018-04-17T06:21:01.842Z,145
2018-04-17T06:22:11.927Z,150
2018-04-17T06:23:22.254Z,150
2018-04-17T06:24:32.358Z,150
2018-04-17T06:25:42.456Z,150
2018-04-17T06:26:52.267Z,150
2018-04-17T06:28:02.385Z,150
2018-04-17T06:29:12.216Z,150
2018-04-17T06:30:21.769Z,150
2018-04-17T06:31:31.870Z,150
2018-04-17T06:32:41.957Z,145
2018-04-17T06:33:52.054Z,145
2018-04-17T06:35:01.988Z,145
2018-04-17T06:36:12.149Z,150
2018-04-17T06:37:21.996Z,150
2018-04-17T06:38:32.191Z,150
2018-04-17T06:39:42.282Z,150
2018-04-17T06:40:52.096Z,150
2018-04-17T06:42:02.450Z,150
2018-04-17T06:43:12.562Z,150
2018-04-17T06:44:22.663Z,150
2018-04-17T06:45:32.493Z,150
2018-04-17T06:46:42.593Z,150
2018-04-17T06:47:52.799Z,150
2018-04-17T06:49:02.367Z,155
2018-04-17T06:50:12.460Z,155
2018-04-17T06:51:22.550Z,155
2018-04-17T06:52:32.372Z,160
2018-04-17T06:53:42.488Z,160
2018-04-17T06:54:52.574Z,160
2018-04-17T06:56:02.410Z,165
2018-04-17T06:57:12.494Z,165
2018-04-17T06:58:22.611Z,165
2018-04-17T06:59:32.693Z,165
2018-04-17T07:00:42.255Z,165
2018-04-17T07:01:52.389Z,165
2018-04-17T07:03:02.467Z,165
2018-04-17T07:04:12.558Z,170
2018-04-17T07:05:22.904Z,170
2018-04-17T07:06:33.007Z,170
2018-04-17T07:07:43.076Z,170
2018-04-17T07:08:53.148Z,170
2018-04-17T07:10:03.228Z,170
2018-04-17T07:11:13.320Z,170
2018-04-17T07:12:23.467Z,175
2018-04-17T07:13:33.548Z,175
2018-04-17T07:14:43.688Z,180
2018-04-17T07:15:53.551Z,185
2018-04-17T07:17:03.943Z,200
2018-04-17T07:18:14.033Z,205
2018-04-17T07:19:24.143Z,185
2018-04-17T07:20:34.225Z,215
2018-04-17T07:21:44.325Z,200
2018-04-17T07:22:54.433Z,200
2018-04-17T07:24:04.554Z,200
2018-04-17T07:25:14.636Z,200
2018-04-17T07:26:24.485Z,165
2018-04-17T07:27:34.561Z,205
2018-04-17T07:28:44.668Z,225
2018-04-17T07:29:54.774Z,185
2018-04-17T07:31:04.860Z,200
2018-04-17T07:32:14.952Z,195
2018-04-17T07:33:25.050Z,165
2018-04-17T07:34:35.190Z,170
2018-04-17T07:35:45.300Z,170
2018-04-17T07:36:55.388Z,175
2018-04-17T07:38:05.476Z,225
2018-04-17T07:39:15.281Z,210
2018-04-17T07:40:25.693Z,230
2018-04-17T07:41:35.580Z,215
2018-04-17T07:42:45.676Z,175
2018-04-17T07:43:55.747Z,165
2018-04-17T07:45:05.557Z,185
2018-04-17T07:46:15.625Z,195
2018-04-17T07:47:25.803Z,190
2018-04-17T07:48:35.898Z,180
2018-04-17T07:49:45.992Z,170
2018-04-17T07:50:56.132Z,165
2018-04-17T07:52:06.223Z,170
2018-04-17T07:53:16.293Z,175
2018-04-17T07:54:26.139Z,185
2018-04-17T07:55:35.989Z,195
2018-04-17T07:56:46.088Z,195
2018-04-17T07:57:56.187Z,200
2018-04-17T07:59:06.015Z,190
2018-04-17T08:00:15.831Z,180
2018-04-17T08:01:25.927Z,185
2018-04-17T08:02:36.025Z,190
2018-04-17T08:03:46.108Z,200
2018-04-17T08:04:56.193Z,205
2018-04-17T08:06:06.296Z,210
2018-04-17T08:07:16.145Z,215
2018-04-17T08:08:26.098Z,220
2018-04-17T08:09:36.178Z,215
2018-04-17T08:10:46.046Z,220
2018-04-17T08:11:56.346Z,220
2018-04-17T08:13:06.233Z,215
2018-04-17T08:14:16.306Z,210
2018-04-17T08:15:26.405Z,235
2018-04-17T08:16:36.500Z,280
2018-04-17T08:17:46.716Z,275
2018-04-17T08:18:56.802Z,300
2018-04-17T08:20:06.903Z,255
2018-04-17T08:21:16.732Z,220
2018-04-17T08:22:26.813Z,210
2018-04-17T08:23:36.956Z,235
2018-04-17T08:24:47.081Z,250
2018-04-17T08:25:57.186Z,235
2018-04-17T08:27:07.308Z,195
2018-04-17T08:28:17.423Z,215
2018-04-17T08:29:27.543Z,230
2018-04-17T08:30:37.634Z,235
2018-04-17T08:31:47.739Z,220
2018-04-17T08:32:57.836Z,245
2018-04-17T08:34:07.688Z,240
2018-04-17T08:35:17.856Z,230
2018-04-17T08:36:28.028Z,225
2018-04-17T08:37:37.860Z,220
2018-04-17T08:38:47.701Z,220
2018-04-17T08:39:57.254Z,220
2018-04-17T08:41:07.398Z,220
2018-04-17T08:42:17.510Z,225
2018-04-17T08:43:27.340Z,250
2018-04-17T08:44:37.448Z,250
2018-04-17T08:45:47.553Z,260
2018-04-17T08:46:57.655Z,215
2018-04-17T08:48:07.765Z,255
2018-04-17T08:49:17.861Z,245
2018-04-17T08:50:27.949Z,220
2018-04-17T08:51:37.791Z,205
2018-04-17T08:52:47.892Z,200
2018-04-17T08:53:57.719Z,195
2018-04-17T08:55:07.819Z,250
2018-04-17T08:56:17.938Z,220
2018-04-17T08:57:28.043Z,170
2018-04-17T08:58:37.868Z,190
2018-04-17T08:59:47.751Z,235
2018-04-17T09:00:57.840Z,230
2018-04-17T09:02:07.409Z,230
2018-04-17T09:03:17.510Z,225
2018-04-17T09:04:27.639Z,225
2018-04-17T09:05:37.770Z,220
2018-04-17T09:06:47.857Z,225
2018-04-17T09:07:57.961Z,220
2018-04-17T09:09:08.071Z,175
2018-04-17T09:10:18.216Z,235
2018-04-17T09:11:28.325Z,240
2018-04-17T09:12:38.403Z,250
2018-04-17T09:13:48.491Z,255
2018-04-17T09:14:58.577Z,270
2018-04-17T09:16:08.682Z,215
2018-04-17T09:17:18.922Z,250
2018-04-17T09:18:29.026Z,195
2018-04-17T09:19:39.132Z,195
2018-04-17T09:20:49.216Z,260
2018-04-17T09:21:59.354Z,260
2018-04-17T09:23:09.475Z,195
2018-04-17T09:24:19.292Z,220
2018-04-17T09:25:29.396Z,255
2018-04-17T09:26:39.494Z,200
2018-04-17T09:27:49.056Z,305
2018-04-17T09:28:59.359Z,290
2018-04-17T09:30:09.467Z,265
2018-04-17T09:31:19.553Z,175
2018-04-17T09:32:29.390Z,165
2018-04-17T09:33:39.536Z,260
2018-04-17T09:34:49.646Z,280
2018-04-17T09:35:59.985Z,275
2018-04-17T09:37:10.152Z,170
2018-04-17T09:38:20.267Z,180
2018-04-17T09:39:30.403Z,270
2018-04-17T09:40:40.256Z,265
2018-04-17T09:41:50.355Z,240
2018-04-17T09:43:00.449Z,245
2018-04-17T09:44:10.544Z,160
2018-04-17T09:45:20.669Z,255
2018-04-17T09:46:30.783Z,265
2018-04-17T09:47:40.878Z,260
2018-04-17T09:48:51.003Z,245
2018-04-17T09:50:01.184Z,160
2018-04-17T09:51:11.554Z,230
2018-04-17T09:52:21.376Z,175
2018-04-17T09:53:31.479Z,265
2018-04-17T09:54:41.574Z,280
2018-04-17T09:55:51.677Z,285
2018-04-17T09:57:01.836Z,290
2018-04-17T09:58:11.688Z,270
2018-04-17T09:59:21.264Z,255
2018-04-17T10:00:31.368Z,250
2018-04-17T10:01:41.482Z,160
2018-04-17T10:02:51.744Z,185
2018-04-17T10:04:01.892Z,210
2018-04-17T10:05:11.982Z,270
2018-04-17T10:06:21.785Z,270
2018-04-17T10:07:31.885Z,265
2018-04-17T10:08:41.701Z,260
2018-04-17T10:09:51.800Z,265
2018-04-17T10:11:01.622Z,265
2018-04-17T10:12:11.739Z,270
2018-04-17T10:13:21.564Z,290
2018-04-17T10:14:31.662Z,255
2018-04-17T10:15:41.760Z,170
2018-04-17T10:16:51.859Z,160
2018-04-17T10:18:01.997Z,180
2018-04-17T10:19:11.838Z,175
2018-04-17T10:20:21.721Z,250
2018-04-17T10:21:31.564Z,260
2018-04-17T10:22:41.455Z,265
2018-04-17T10:23:51.273Z,270
2018-04-17T10:25:01.222Z,270
2018-04-17T10:26:11.324Z,260
2018-04-17T10:27:21.171Z,255
2018-04-17T10:28:31.005Z,255
2018-04-17T10:29:41.155Z,255
2018-04-17T10:30:50.989Z,250
2018-04-17T10:32:01.083Z,180
2018-04-17T10:33:10.986Z,260
2018-04-17T10:34:21.135Z,265
2018-04-17T10:35:31.272Z,270
2018-04-17T10:36:41.388Z,270
2018-04-17T10:37:50.952Z,305
2018-04-17T10:39:00.783Z,305
2018-04-17T10:40:10.874Z,280
2018-04-17T10:41:21.009Z,210
2018-04-17T10:42:31.119Z,215
2018-04-17T10:43:41.230Z,200
2018-04-17T10:44:51.338Z,190
2018-04-17T10:46:01.434Z,185
2018-04-17T10:47:11.550Z,275
2018-04-17T10:48:21.652Z,190
2018-04-17T10:49:31.739Z,270
2018-04-17T10:50:41.574Z,270
2018-04-17T10:51:51.669Z,235
2018-04-17T10:53:02.186Z,265
2018-04-17T10:54:14.641Z,255
2018-04-17T10:55:29.537Z,255
2018-04-17T10:56:47.604Z,260
2018-04-17T10:57:59.361Z,265
2018-04-17T10:59:09.477Z,270
2018-04-17T11:00:19.832Z,265
2018-04-17T11:01:29.954Z,260
2018-04-17T11:02:40.071Z,205
2018-04-17T11:03:50.176Z,255
2018-04-17T11:05:00.512Z,225
2018-04-17T11:06:10.351Z,160
2018-04-17T11:07:20.451Z,155
2018-04-17T11:08:30.624Z,255
2018-04-17T11:09:40.449Z,260
2018-04-17T11:10:50.272Z,255
2018-04-17T11:12:00.102Z,255
2018-04-17T11:13:09.684Z,250
2018-04-17T11:14:19.784Z,255
2018-04-17T11:15:29.885Z,255
2018-04-17T11:16:39.967Z,270
2018-04-17T11:17:49.820Z,265
2018-04-17T11:18:59.927Z,190
2018-04-17T11:20:10.072Z,195
2018-04-17T11:21:20.161Z,290
2018-04-17T11:22:30.031Z,285
2018-04-17T11:23:40.103Z,290
2018-04-17T11:24:50.196Z,295
2018-04-17T11:26:00.306Z,300
2018-04-17T11:27:10.101Z,300
2018-04-17T11:28:19.932Z,240
2018-04-17T11:29:30.030Z,180
2018-04-17T11:30:39.865Z,255
2018-04-17T11:31:49.450Z,170
2018-04-17T11:32:59.557Z,190
2018-04-17T11:34:09.678Z,275
2018-04-17T11:35:19.811Z,245
2018-04-17T11:36:29.659Z,195
2018-04-17T11:37:39.773Z,275
2018-04-17T11:38:49.623Z,230
2018-04-17T11:39:59.720Z,155
2018-04-17T11:41:09.756Z,155
2018-04-17T11:42:19.852Z,255
2018-04-17T11:43:29.702Z,260
2018-04-17T11:44:39.826Z,255
2018-04-17T11:45:49.913Z,260
2018-04-17T11:47:00.498Z,275
2018-04-17T11:48:10.599Z,295
2018-04-17T11:49:20.709Z,290
2018-04-17T11:50:30.806Z,295
2018-04-17T11:51:40.950Z,285
2018-04-17T11:52:51.086Z,240
2018-04-17T11:54:01.198Z,285
2018-04-17T11:55:11.305Z,280
2018-04-17T11:56:21.402Z,270
2018-04-17T11:57:31.580Z,195
2018-04-17T11:58:41.474Z,145
2018-04-17T11:59:51.578Z,140
2018-04-17T12:01:01.667Z,140
2018-04-17T12:02:11.988Z,150
2018-04-17T12:03:22.059Z,270
2018-04-17T12:04:31.890Z,275
2018-04-17T12:05:41.989Z,285
2018-04-17T12:06:52.115Z,290
2018-04-17T12:08:01.970Z,290
2018-04-17T12:09:12.114Z,285
2018-04-17T12:10:22.213Z,275
2018-04-17T12:11:32.303Z,270
2018-04-17T12:12:42.400Z,260
2018-04-17T12:13:52.504Z,170
2018-04-17T12:15:02.610Z,190
2018-04-17T12:16:12.715Z,160
2018-04-17T12:17:22.588Z,185
2018-04-17T12:18:32.690Z,275
2018-04-17T12:19:42.780Z,280
2018-04-17T12:20:52.623Z,290
2018-04-17T12:22:02.753Z,295
2018-04-17T12:23:12.865Z,200
2018-04-17T12:24:22.959Z,205
2018-04-17T12:25:32.793Z,300
2018-04-17T12:26:42.943Z,300
2018-04-17T12:27:52.784Z,285
2018-04-17T12:29:02.885Z,285
2018-04-17T12:30:12.725Z,280
2018-04-17T12:31:22.819Z,280
2018-04-17T12:32:32.908Z,275
2018-04-17T12:33:43.252Z,265
2018-04-17T12:34:53.360Z,185
2018-04-17T12:36:03.479Z,270
2018-04-17T12:37:13.580Z,270
2018-04-17T12:38:23.671Z,205
2018-04-17T12:39:33.770Z,200
2018-04-17T12:40:43.869Z,280
2018-04-17T12:41:53.993Z,180
2018-04-17T12:43:04.164Z,280
2018-04-17T12:44:14.098Z,290
2018-04-17T12:45:24.203Z,305
2018-04-17T12:46:34.292Z,315
2018-04-17T12:47:44.393Z,315
2018-04-17T12:48:54.238Z,315
2018-04-17T12:50:04.353Z,315
2018-04-17T12:51:14.448Z,305
2018-04-17T12:52:24.564Z,285
2018-04-17T12:53:34.668Z,270
2018-04-17T12:54:44.756Z,195
2018-04-17T12:55:54.644Z,275
2018-04-17T12:57:04.763Z,290
2018-04-17T12:58:14.869Z,300
2018-04-17T12:59:24.968Z,305
2018-04-17T13:00:34.553Z,305
2018-04-17T13:01:44.720Z,295
2018-04-17T13:02:54.837Z,225
2018-04-17T13:04:04.931Z,250
2018-04-17T13:05:14.770Z,190
2018-04-17T13:06:24.861Z,190
2018-04-17T13:07:35.011Z,235
2018-04-17T13:08:45.102Z,260
2018-04-17T13:09:54.945Z,210
2018-04-17T13:11:04.780Z,270
2018-04-17T13:12:14.606Z,265
2018-04-17T13:13:24.499Z,265
2018-04-17T13:14:34.586Z,275
2018-04-17T13:15:44.549Z,285
2018-04-17T13:16:54.687Z,275
2018-04-17T13:18:04.797Z,270
2018-04-17T13:19:14.931Z,200
2018-04-17T13:20:25.027Z,175
2018-04-17T13:21:35.130Z,165
2018-04-17T13:22:45.256Z,165
2018-04-17T13:23:55.388Z,160
2018-04-17T13:25:05.297Z,160
2018-04-17T13:26:15.140Z,175
2018-04-17T13:27:25.241Z,240
2018-04-17T13:28:35.341Z,175
2018-04-17T13:29:45.221Z,165
2018-04-17T13:30:55.319Z,245
2018-04-17T13:32:05.427Z,245
2018-04-17T13:33:15.526Z,240
2018-04-17T13:34:25.660Z,170
2018-04-17T13:35:35.766Z,240
2018-04-17T13:36:45.908Z,245
2018-04-17T13:37:56.046Z,240
2018-04-17T13:39:06.131Z,230
2018-04-17T13:40:16.250Z,225
2018-04-17T13:41:26.335Z,235
2018-04-17T13:42:35.912Z,225
2018-04-17T13:43:46.006Z,150
2018-04-17T13:44:56.123Z,155
2018-04-17T13:46:06.243Z,205
2018-04-17T13:47:16.354Z,245
2018-04-17T13:48:26.501Z,220
2018-04-17T13:49:36.590Z,255
2018-04-17T13:50:46.675Z,255
2018-04-17T13:51:56.759Z,250
2018-04-17T13:53:06.853Z,245
2018-04-17T13:54:17.165Z,245
2018-04-17T13:55:27.019Z,245
2018-04-17T13:56:37.139Z,245
2018-04-17T13:57:47.245Z,240
2018-04-17T13:58:57.359Z,245
2018-04-17T14:00:07.510Z,240
2018-04-17T14:01:17.623Z,235
2018-04-17T14:02:27.494Z,230
2018-04-17T14:03:37.603Z,215
2018-04-17T14:04:47.690Z,180
2018-04-17T14:05:57.515Z,180
2018-04-17T14:07:07.633Z,165
2018-04-17T14:08:17.730Z,145
2018-04-17T14:09:27.881Z,130
2018-04-17T14:10:37.987Z,135
2018-04-17T14:11:48.118Z,120
2018-04-17T14:12:58.229Z,120
2018-04-17T14:14:08.066Z,135
2018-04-17T14:15:18.156Z,115
2018-04-17T14:16:28.306Z,115
2018-04-17T14:17:38.066Z,115
2018-04-17T14:18:48.175Z,120
2018-04-17T14:19:58.284Z,125
2018-04-17T14:21:08.387Z,125
2018-04-17T14:22:18.213Z,135
2018-04-17T14:23:28.375Z,150
2018-04-17T14:24:38.469Z,155
2018-04-17T14:25:48.574Z,195
2018-04-17T14:26:58.456Z,215
2018-04-17T14:28:08.572Z,215
2018-04-17T14:29:18.683Z,225
2018-04-17T14:30:28.812Z,235
2018-04-17T14:31:38.655Z,245
2018-04-17T14:32:48.758Z,250
2018-04-17T14:33:58.845Z,245
2018-04-17T14:35:08.977Z,230
2018-04-17T14:36:19.096Z,210
2018-04-17T14:37:29.219Z,200
2018-04-17T14:38:39.320Z,185
2018-04-17T14:39:49.429Z,180
2018-04-17T14:40:59.267Z,165
2018-04-17T14:42:09.369Z,160
2018-04-17T14:43:19.229Z,150
2018-04-17T14:44:29.351Z,155
2018-04-17T14:45:39.457Z,160
2018-04-17T14:46:49.567Z,160
2018-04-17T14:47:59.684Z,155
2018-04-17T14:49:09.790Z,150
2018-04-17T14:50:19.882Z,155
2018-04-17T14:51:29.964Z,145
2018-04-17T14:52:39.850Z,145
2018-04-17T14:53:49.696Z,165
2018-04-17T14:54:59.802Z,140
2018-04-17T14:56:09.902Z,130
2018-04-17T14:57:20.012Z,155
2018-04-17T14:58:30.155Z,170
2018-04-17T14:59:40.253Z,165
2018-04-17T15:00:50.355Z,170
2018-04-17T15:02:00.250Z,170
2018-04-17T15:03:10.361Z,165
2018-04-17T15:04:20.487Z,165
2018-04-17T15:05:30.573Z,165
2018-04-17T15:06:40.434Z,165
2018-04-17T15:07:50.286Z,155
2018-04-17T15:09:00.487Z,165
2018-04-17T15:10:10.593Z,160
2018-04-17T15:11:20.712Z,160
2018-04-17T15:12:31.072Z,155
2018-04-17T15:13:41.177Z,155
2018-04-17T15:14:51.280Z,155
2018-04-17T15:16:01.391Z,145
2018-04-17T15:17:11.492Z,145
2018-04-17T15:18:21.335Z,145
2018-04-17T15:19:31.435Z,140
2018-04-17T15:20:41.278Z,140
2018-04-17T15:21:51.399Z,140
2018-04-17T15:23:01.743Z,140
2018-04-17T15:24:11.856Z,140
2018-04-17T15:25:21.699Z,135
2018-04-17T15:26:31.877Z,135
2018-04-17T15:27:42.021Z,135
2018-04-17T15:28:52.169Z,135
2018-04-17T15:30:02.020Z,130
2018-04-17T15:31:12.131Z,130
2018-04-17T15:32:22.237Z,135
2018-04-17T15:33:32.104Z,115
2018-04-17T15:34:42.218Z,130
2018-04-17T15:35:52.048Z,120
2018-04-17T15:37:02.171Z,125
2018-04-17T15:38:12.356Z,130
2018-04-17T15:39:22.242Z,125
2018-04-17T15:40:32.354Z,130
2018-04-17T15:41:42.458Z,135
2018-04-17T15:42:52.583Z,125
2018-04-17T15:44:02.706Z,120
2018-04-17T15:45:12.594Z,120
2018-04-17T15:46:22.715Z,105
2018-04-17T15:47:32.817Z,110
2018-04-17T15:48:42.940Z,120
2018-04-17T15:49:53.063Z,110
2018-04-17T15:51:03.204Z,125
2018-04-17T15:52:13.035Z,125
2018-04-17T15:53:23.134Z,125
2018-04-17T15:54:32.982Z,125
2018-04-17T15:55:43.073Z,125
2018-04-17T15:56:53.208Z,125
2018-04-17T15:58:03.292Z,125
2018-04-17T15:59:13.159Z,120
2018-04-17T16:00:23.023Z,115
2018-04-17T16:01:33.112Z,115
2018-04-17T16:02:43.267Z,110
2018-04-17T16:03:53.465Z,110
2018-04-17T16:05:03.561Z,110
2018-04-17T16:06:13.683Z,110
2018-04-17T16:07:23.774Z,110
2018-04-17T16:08:34.020Z,105
2018-04-17T16:09:43.703Z,100
2018-04-17T16:10:53.827Z,100
2018-04-17T16:12:03.936Z,95
2018-04-17T16:13:14.340Z,95
2018-04-17T16:14:24.575Z,95
2018-04-17T16:15:34.411Z,85
2018-04-17T16:16:44.574Z,80
2018-04-17T16:17:54.682Z,90
2018-04-17T16:19:04.758Z,95
2018-04-17T16:20:14.641Z,95
2018-04-17T16:21:24.809Z,90
2018-04-17T16:22:34.926Z,90
2018-04-17T16:23:45.031Z,90
2018-04-17T16:24:55.148Z,90
2018-04-17T16:26:05.287Z,90
2018-04-17T16:27:15.484Z,85
2018-04-17T16:28:25.597Z,85
2018-04-17T16:29:35.701Z,80
2018-04-17T16:30:45.799Z,80
2018-04-17T16:31:55.936Z,75
2018-04-17T16:33:06.119Z,75
2018-04-17T16:34:16.245Z,75
2018-04-17T16:35:26.365Z,75
2018-04-17T16:36:36.285Z,70
2018-04-17T16:37:45.869Z,70
2018-04-17T16:38:55.977Z,70
2018-04-17T16:40:06.077Z,70
2018-04-17T16:41:16.394Z,70
2018-04-17T16:42:26.494Z,65
2018-04-17T16:43:36.608Z,65
2018-04-17T16:44:46.459Z,65
2018-04-17T16:45:56.547Z,60
2018-04-17T16:47:06.668Z,60
2018-04-17T16:48:16.785Z,60
2018-04-17T16:49:27.132Z,60
2018-04-17T16:50:37.251Z,55
2018-04-17T16:51:47.442Z,55
2018-04-17T16:52:57.791Z,55
2018-04-17T16:54:07.939Z,50
2018-04-17T16:55:18.041Z,50